sensor_id;sensor_type;location;lat;lon;timestamp;pressure;altitude;pressure_sealevel;temperature;humidity
63339;BME280;47485;51.378;-1.342;2023-03-23T00:01:28;98268.59;;;-0.29;59.29
63339;BME280;47485;51.378;-1.342;2023-03-23T00:03:55;98288.49;;;-0.09;57.87
63339;BME280;47485;51.378;-1.342;2023-03-23T00:06:21;98284.28;;;-0.16;60.01
63339;BME280;47485;51.378;-1.342;2023-03-23T00:08:49;98266.38;;;-0.88;61.73
63339;BME280;47485;51.378;-1.342;2023-03-23T00:11:20;98276.14;;;-0.77;61.70
63339;BME280;47485;51.378;-1.342;2023-03-23T00:13:49;98284.39;;;0.45;60.16
63339;BME280;47485;51.378;-1.342;2023-03-23T00:16:16;98287.95;;;0.04;62.28
63339;BME280;47485;51.378;-1.342;2023-03-23T00:18:44;98280.83;;;-0.33;61.24
63339;BME280;47485;51.378;-1.342;2023-03-23T00:21:11;98279.71;;;0.26;58.88
63339;BME280;47485;51.378;-1.342;2023-03-23T00:23:38;98282.89;;;0.97;58.09
63339;BME280;47485;51.378;-1.342;2023-03-23T00:26:04;98297.07;;;-0.05;58.16
63339;BME280;47485;51.378;-1.342;2023-03-23T00:28:31;98284.24;;;0.87;58.58
63339;BME280;47485;51.378;-1.342;2023-03-23T00:31:00;98291.95;;;1.21;56.06
63339;BME280;47485;51.378;-1.342;2023-03-23T00:33:29;98285.12;;;1.84;54.10
63339;BME280;47485;51.378;-1.342;2023-03-23T00:35:56;98283.87;;;0.85;56.18
63339;BME280;47485;51.378;-1.342;2023-03-23T00:38:28;98281.06;;;0.98;55.91
63339;BME280;47485;51.378;-1.342;2023-03-23T00:40:56;98294.61;;;-0.15;57.33
63339;BME280;47485;51.378;-1.342;2023-03-23T00:43:24;98288.47;;;0.46;56.77
63339;BME280;47485;51.378;-1.342;2023-03-23T00:45:51;98298.29;;;0.66;55.77
63339;BME280;47485;51.378;-1.342;2023-03-23T00:48:19;98292.69;;;1.93;52.74
63339;BME280;47485;51.378;-1.342;2023-03-23T00:50:46;98295.36;;;2.36;50.62
63339;BME280;47485;51.378;-1.342;2023-03-23T00:53:14;98289.93;;;2.28;50.96
63339;BME280;47485;51.378;-1.342;2023-03-23T00:55:41;98290.52;;;3.32;47.60
63339;BME280;47485;51.378;-1.342;2023-03-23T00:58:09;98287.08;;;3.16;48.12
63339;BME280;47485;51.378;-1.342;2023-03-23T01:00:37;98294.63;;;2.90;47.78
63339;BME280;47485;51.378;-1.342;2023-03-23T01:03:06;98309.15;;;4.44;45.43
63339;BME280;47485;51.378;-1.342;2023-03-23T01:05:36;98310.20;;;3.07;46.97
63339;BME280;47485;51.378;-1.342;2023-03-23T01:08:05;98316.93;;;2.76;45.75
63339;BME280;47485;51.378;-1.342;2023-03-23T01:10:32;98314.42;;;3.43;46.34
63339;BME280;47485;51.378;-1.342;2023-03-23T01:13:00;98309.96;;;3.72;47.04
63339;BME280;47485;51.378;-1.342;2023-03-23T01:15:28;98312.02;;;2.64;47.91
63339;BME280;47485;51.378;-1.342;2023-03-23T01:17:57;98317.05;;;3.48;47.52
63339;BME280;47485;51.378;-1.342;2023-03-23T01:20:24;98319.28;;;2.80;48.68
63339;BME280;47485;51.378;-1.342;2023-03-23T01:22:51;98316.98;;;3.70;46.32
63339;BME280;47485;51.378;-1.342;2023-03-23T01:25:20;98320.76;;;3.06;47.79
63339;BME280;47485;51.378;-1.342;2023-03-23T01:27:47;98320.38;;;3.08;49.39
63339;BME280;47485;51.378;-1.342;2023-03-23T01:30:14;98322.02;;;4.56;46.05
63339;BME280;47485;51.378;-1.342;2023-03-23T01:32:40;98327.29;;;2.41;47.66
63339;BME280;47485;51.378;-1.342;2023-03-23T01:35:08;98328.61;;;3.46;46.81
63339;BME280;47485;51.378;-1.342;2023-03-23T01:37:35;98329.67;;;3.27;49.35
63339;BME280;47485;51.378;-1.342;2023-03-23T01:40:02;98328.90;;;3.20;50.12
63339;BME280;47485;51.378;-1.342;2023-03-23T01:42:31;98327.93;;;2.42;50.06
63339;BME280;47485;51.378;-1.342;2023-03-23T01:45:25;98330.68;;;3.61;46.43
63339;BME280;47485;51.378;-1.342;2023-03-23T01:48:07;98328.44;;;4.27;48.38
63339;BME280;47485;51.378;-1.342;2023-03-23T01:50:40;98335.43;;;3.30;48.81
63339;BME280;47485;51.378;-1.342;2023-03-23T01:53:10;98333.07;;;3.40;47.56
63339;BME280;47485;51.378;-1.342;2023-03-23T01:55:39;98337.88;;;4.50;43.84
63339;BME280;47485;51.378;-1.342;2023-03-23T01:58:08;98329.67;;;4.40;44.38
63339;BME280;47485;51.378;-1.342;2023-03-23T02:00:36;98333.22;;;4.59;44.25
63339;BME280;47485;51.378;-1.342;2023-03-23T02:03:14;98335.01;;;3.80;44.73
63339;BME280;47485;51.378;-1.342;2023-03-23T02:05:41;98329.06;;;3.41;43.99
63339;BME280;47485;51.378;-1.342;2023-03-23T02:08:10;98332.65;;;5.46;43.20
63339;BME280;47485;51.378;-1.342;2023-03-23T02:10:37;98335.20;;;3.09;44.24
63339;BME280;47485;51.378;-1.342;2023-03-23T02:13:07;98334.62;;;3.70;45.75
63339;BME280;47485;51.378;-1.342;2023-03-23T02:15:42;98336.34;;;1.73;47.27
63339;BME280;47485;51.378;-1.342;2023-03-23T02:18:19;98339.87;;;3.13;48.48
63339;BME280;47485;51.378;-1.342;2023-03-23T02:21:09;98339.88;;;2.93;46.72
63339;BME280;47485;51.378;-1.342;2023-03-23T02:23:53;98341.08;;;2.44;46.80
63339;BME280;47485;51.378;-1.342;2023-03-23T02:26:34;98340.78;;;4.97;44.96
63339;BME280;47485;51.378;-1.342;2023-03-23T02:30:14;98337.98;;;3.54;43.54
63339;BME280;47485;51.378;-1.342;2023-03-23T02:33:29;98334.30;;;3.53;43.21
63339;BME280;47485;51.378;-1.342;2023-03-23T02:36:04;98335.46;;;5.18;41.92
63339;BME280;47485;51.378;-1.342;2023-03-23T02:38:38;98339.32;;;5.57;40.77
63339;BME280;47485;51.378;-1.342;2023-03-23T02:41:09;98344.20;;;3.09;42.27
63339;BME280;47485;51.378;-1.342;2023-03-23T02:43:40;98344.96;;;4.80;43.44
63339;BME280;47485;51.378;-1.342;2023-03-23T02:46:10;98349.77;;;4.38;43.88
63339;BME280;47485;51.378;-1.342;2023-03-23T02:48:38;98350.36;;;4.03;44.69
63339;BME280;47485;51.378;-1.342;2023-03-23T02:51:08;98345.87;;;5.03;42.47
63339;BME280;47485;51.378;-1.342;2023-03-23T02:53:38;98343.89;;;4.94;40.07
63339;BME280;47485;51.378;-1.342;2023-03-23T02:56:08;98342.28;;;4.40;42.27
63339;BME280;47485;51.378;-1.342;2023-03-23T02:58:36;98347.44;;;3.53;41.85
63339;BME280;47485;51.378;-1.342;2023-03-23T03:01:15;98345.98;;;5.58;41.53
63339;BME280;47485;51.378;-1.342;2023-03-23T03:04:13;98342.47;;;4.69;40.44
63339;BME280;47485;51.378;-1.342;2023-03-23T03:06:46;98341.47;;;4.49;41.22
63339;BME280;47485;51.378;-1.342;2023-03-23T03:09:22;98343.54;;;4.59;42.93
63339;BME280;47485;51.378;-1.342;2023-03-23T03:11:58;98350.80;;;3.17;42.76
63339;BME280;47485;51.378;-1.342;2023-03-23T03:14:29;98347.19;;;6.81;38.77
63339;BME280;47485;51.378;-1.342;2023-03-23T03:17:01;98349.42;;;5.18;42.36
63339;BME280;47485;51.378;-1.342;2023-03-23T03:19:32;98354.28;;;4.40;40.35
63339;BME280;47485;51.378;-1.342;2023-03-23T03:22:01;98347.93;;;1.88;42.34
63339;BME280;47485;51.378;-1.342;2023-03-23T03:24:29;98348.30;;;4.73;42.29
63339;BME280;47485;51.378;-1.342;2023-03-23T03:26:59;98347.38;;;3.11;42.52
63339;BME280;47485;51.378;-1.342;2023-03-23T03:29:30;98350.73;;;4.34;43.35
63339;BME280;47485;51.378;-1.342;2023-03-23T03:32:02;98344.42;;;4.34;42.52
63339;BME280;47485;51.378;-1.342;2023-03-23T03:34:30;98347.34;;;5.52;41.01
63339;BME280;47485;51.378;-1.342;2023-03-23T03:36:57;98346.33;;;2.69;43.56
63339;BME280;47485;51.378;-1.342;2023-03-23T03:39:25;98341.84;;;3.54;42.60
63339;BME280;47485;51.378;-1.342;2023-03-23T03:41:54;98342.86;;;2.50;43.66
63339;BME280;47485;51.378;-1.342;2023-03-23T03:44:21;98343.71;;;2.11;44.86
63339;BME280;47485;51.378;-1.342;2023-03-23T03:46:48;98349.59;;;3.20;43.28
63339;BME280;47485;51.378;-1.342;2023-03-23T03:49:14;98348.33;;;4.73;41.44
63339;BME280;47485;51.378;-1.342;2023-03-23T03:51:42;98355.24;;;5.78;41.57
63339;BME280;47485;51.378;-1.342;2023-03-23T03:54:09;98352.97;;;3.83;43.25
63339;BME280;47485;51.378;-1.342;2023-03-23T03:56:36;98354.84;;;5.26;41.84
63339;BME280;47485;51.378;-1.342;2023-03-23T03:59:03;98352.14;;;5.19;41.33
63339;BME280;47485;51.378;-1.342;2023-03-23T04:01:30;98351.83;;;5.37;38.74
63339;BME280;47485;51.378;-1.342;2023-03-23T04:03:57;98354.52;;;3.98;40.72
63339;BME280;47485;51.378;-1.342;2023-03-23T04:06:23;98353.73;;;2.00;43.47
63339;BME280;47485;51.378;-1.342;2023-03-23T04:08:50;98352.88;;;2.10;44.23
63339;BME280;47485;51.378;-1.342;2023-03-23T04:11:18;98356.38;;;3.30;42.77
63339;BME280;47485;51.378;-1.342;2023-03-23T04:13:44;98358.52;;;3.89;43.89
63339;BME280;47485;51.378;-1.342;2023-03-23T04:16:11;98359.92;;;4.00;43.34
63339;BME280;47485;51.378;-1.342;2023-03-23T04:18:38;98368.95;;;2.52;44.81
63339;BME280;47485;51.378;-1.342;2023-03-23T04:21:05;98363.39;;;4.39;42.75
63339;BME280;47485;51.378;-1.342;2023-03-23T04:23:31;98364.93;;;2.90;44.38
63339;BME280;47485;51.378;-1.342;2023-03-23T04:25:59;98362.44;;;3.54;44.29
63339;BME280;47485;51.378;-1.342;2023-03-23T04:28:27;98364.86;;;3.36;44.63
63339;BME280;47485;51.378;-1.342;2023-03-23T04:30:54;98365.15;;;4.21;42.40
63339;BME280;47485;51.378;-1.342;2023-03-23T04:33:23;98364.43;;;4.59;42.10
63339;BME280;47485;51.378;-1.342;2023-03-23T04:35:51;98368.65;;;4.75;41.55
63339;BME280;47485;51.378;-1.342;2023-03-23T04:38:20;98371.93;;;4.32;42.87
63339;BME280;47485;51.378;-1.342;2023-03-23T04:40:49;98380.95;;;3.67;45.15
63339;BME280;47485;51.378;-1.342;2023-03-23T04:43:16;98380.93;;;3.25;43.48
63339;BME280;47485;51.378;-1.342;2023-03-23T04:45:42;98384.74;;;2.46;44.67
63339;BME280;47485;51.378;-1.342;2023-03-23T04:48:09;98385.61;;;3.49;43.76
63339;BME280;47485;51.378;-1.342;2023-03-23T04:50:37;98386.34;;;4.10;42.91
63339;BME280;47485;51.378;-1.342;2023-03-23T04:53:04;98386.99;;;3.70;43.42
63339;BME280;47485;51.378;-1.342;2023-03-23T04:55:31;98387.94;;;0.78;46.32
63339;BME280;47485;51.378;-1.342;2023-03-23T04:57:58;98383.72;;;3.69;44.61
63339;BME280;47485;51.378;-1.342;2023-03-23T05:00:25;98384.16;;;2.97;44.10
63339;BME280;47485;51.378;-1.342;2023-03-23T05:02:52;98388.06;;;2.84;45.12
63339;BME280;47485;51.378;-1.342;2023-03-23T05:05:24;98392.51;;;3.95;43.93
63339;BME280;47485;51.378;-1.342;2023-03-23T05:07:51;98397.16;;;4.29;42.94
63339;BME280;47485;51.378;-1.342;2023-03-23T05:10:18;98395.89;;;4.32;43.01
63339;BME280;47485;51.378;-1.342;2023-03-23T05:12:45;98398.74;;;4.48;42.68
63339;BME280;47485;51.378;-1.342;2023-03-23T05:15:14;98392.09;;;3.63;45.31
63339;BME280;47485;51.378;-1.342;2023-03-23T05:17:41;98400.06;;;3.50;46.77
63339;BME280;47485;51.378;-1.342;2023-03-23T05:20:11;98400.61;;;3.94;46.80
63339;BME280;47485;51.378;-1.342;2023-03-23T05:22:38;98400.65;;;2.58;46.85
63339;BME280;47485;51.378;-1.342;2023-03-23T05:25:06;98401.71;;;1.44;48.67
63339;BME280;47485;51.378;-1.342;2023-03-23T05:27:34;98395.73;;;2.37;46.96
63339;BME280;47485;51.378;-1.342;2023-03-23T05:30:03;98398.22;;;3.91;47.83
63339;BME280;47485;51.378;-1.342;2023-03-23T05:32:30;98390.03;;;2.83;45.97
63339;BME280;47485;51.378;-1.342;2023-03-23T05:34:57;98391.48;;;1.65;46.33
63339;BME280;47485;51.378;-1.342;2023-03-23T05:37:25;98380.79;;;3.90;44.54
63339;BME280;47485;51.378;-1.342;2023-03-23T05:39:53;98379.79;;;4.69;43.08
63339;BME280;47485;51.378;-1.342;2023-03-23T05:42:20;98377.00;;;4.54;45.58
63339;BME280;47485;51.378;-1.342;2023-03-23T05:44:47;98374.35;;;4.14;46.09
63339;BME280;47485;51.378;-1.342;2023-03-23T05:47:14;98375.96;;;2.48;45.94
63339;BME280;47485;51.378;-1.342;2023-03-23T05:49:41;98370.77;;;3.98;44.81
63339;BME280;47485;51.378;-1.342;2023-03-23T05:52:08;98373.01;;;3.54;46.48
63339;BME280;47485;51.378;-1.342;2023-03-23T05:54:35;98368.56;;;2.45;46.66
63339;BME280;47485;51.378;-1.342;2023-03-23T05:57:03;98361.16;;;4.98;44.38
63339;BME280;47485;51.378;-1.342;2023-03-23T05:59:31;98368.98;;;3.39;45.30
63339;BME280;47485;51.378;-1.342;2023-03-23T06:01:57;98366.47;;;4.61;43.43
63339;BME280;47485;51.378;-1.342;2023-03-23T06:04:25;98372.07;;;3.38;43.69
63339;BME280;47485;51.378;-1.342;2023-03-23T06:06:52;98371.15;;;3.75;46.21
63339;BME280;47485;51.378;-1.342;2023-03-23T06:09:20;98372.18;;;3.14;47.51
63339;BME280;47485;51.378;-1.342;2023-03-23T06:11:47;98368.39;;;4.37;44.60
63339;BME280;47485;51.378;-1.342;2023-03-23T06:14:13;98365.80;;;2.61;45.44
63339;BME280;47485;51.378;-1.342;2023-03-23T06:16:40;98371.29;;;3.19;45.10
63339;BME280;47485;51.378;-1.342;2023-03-23T06:19:06;98367.22;;;3.34;44.14
63339;BME280;47485;51.378;-1.342;2023-03-23T06:21:34;98363.65;;;4.20;43.25
63339;BME280;47485;51.378;-1.342;2023-03-23T06:24:00;98362.44;;;3.40;43.43
63339;BME280;47485;51.378;-1.342;2023-03-23T06:26:30;98363.29;;;5.05;43.59
63339;BME280;47485;51.378;-1.342;2023-03-23T06:28:57;98363.27;;;3.74;44.45
63339;BME280;47485;51.378;-1.342;2023-03-23T06:31:25;98359.76;;;3.62;45.10
63339;BME280;47485;51.378;-1.342;2023-03-23T06:33:53;98365.49;;;2.28;45.43
63339;BME280;47485;51.378;-1.342;2023-03-23T06:36:20;98367.19;;;3.89;44.40
63339;BME280;47485;51.378;-1.342;2023-03-23T06:38:47;98365.89;;;3.79;46.98
63339;BME280;47485;51.378;-1.342;2023-03-23T06:41:13;98365.26;;;3.28;44.18
63339;BME280;47485;51.378;-1.342;2023-03-23T06:43:40;98363.13;;;4.10;44.36
63339;BME280;47485;51.378;-1.342;2023-03-23T06:46:06;98368.92;;;5.33;43.82
63339;BME280;47485;51.378;-1.342;2023-03-23T06:48:34;98361.62;;;6.07;41.43
63339;BME280;47485;51.378;-1.342;2023-03-23T06:51:00;98364.57;;;3.75;45.30
63339;BME280;47485;51.378;-1.342;2023-03-23T06:53:27;98363.91;;;4.00;46.18
63339;BME280;47485;51.378;-1.342;2023-03-23T06:55:54;98371.69;;;2.39;50.09
63339;BME280;47485;51.378;-1.342;2023-03-23T06:58:21;98368.19;;;3.20;50.10
63339;BME280;47485;51.378;-1.342;2023-03-23T07:00:47;98366.85;;;2.55;49.37
63339;BME280;47485;51.378;-1.342;2023-03-23T07:03:14;98372.37;;;3.53;48.55
63339;BME280;47485;51.378;-1.342;2023-03-23T07:05:41;98372.02;;;2.64;48.40
63339;BME280;47485;51.378;-1.342;2023-03-23T07:08:08;98378.10;;;2.50;51.01
63339;BME280;47485;51.378;-1.342;2023-03-23T07:10:34;98380.24;;;3.06;51.94
63339;BME280;47485;51.378;-1.342;2023-03-23T07:13:01;98389.08;;;1.91;51.84
63339;BME280;47485;51.378;-1.342;2023-03-23T07:15:28;98381.31;;;3.40;48.88
63339;BME280;47485;51.378;-1.342;2023-03-23T07:17:54;98384.97;;;4.36;46.53
63339;BME280;47485;51.378;-1.342;2023-03-23T07:20:21;98394.18;;;3.43;48.42
63339;BME280;47485;51.378;-1.342;2023-03-23T07:22:48;98398.56;;;4.08;49.15
63339;BME280;47485;51.378;-1.342;2023-03-23T07:25:15;98393.50;;;3.37;50.05
63339;BME280;47485;51.378;-1.342;2023-03-23T07:27:44;98396.47;;;4.28;48.20
63339;BME280;47485;51.378;-1.342;2023-03-23T07:30:11;98398.30;;;3.62;47.14
63339;BME280;47485;51.378;-1.342;2023-03-23T07:32:38;98402.00;;;2.92;48.04
63339;BME280;47485;51.378;-1.342;2023-03-23T07:35:06;98411.34;;;1.99;48.20
63339;BME280;47485;51.378;-1.342;2023-03-23T07:37:33;98412.74;;;4.56;47.94
63339;BME280;47485;51.378;-1.342;2023-03-23T07:40:00;98399.39;;;2.81;47.56
63339;BME280;47485;51.378;-1.342;2023-03-23T07:42:27;98403.30;;;5.12;46.24
63339;BME280;47485;51.378;-1.342;2023-03-23T07:44:54;98403.14;;;4.22;46.29
63339;BME280;47485;51.378;-1.342;2023-03-23T07:47:20;98399.13;;;4.13;47.34
63339;BME280;47485;51.378;-1.342;2023-03-23T07:49:47;98406.21;;;3.40;47.24
63339;BME280;47485;51.378;-1.342;2023-03-23T07:52:14;98406.51;;;3.56;46.03
63339;BME280;47485;51.378;-1.342;2023-03-23T07:54:41;98406.52;;;5.55;46.93
63339;BME280;47485;51.378;-1.342;2023-03-23T07:57:08;98411.62;;;3.71;47.43
63339;BME280;47485;51.378;-1.342;2023-03-23T07:59:35;98411.96;;;2.67;49.68
63339;BME280;47485;51.378;-1.342;2023-03-23T08:02:01;98412.57;;;2.96;49.95
63339;BME280;47485;51.378;-1.342;2023-03-23T08:04:28;98416.57;;;3.65;48.64
63339;BME280;47485;51.378;-1.342;2023-03-23T08:06:55;98418.47;;;3.08;50.20
63339;BME280;47485;51.378;-1.342;2023-03-23T08:09:22;98411.31;;;3.32;50.18
63339;BME280;47485;51.378;-1.342;2023-03-23T08:11:49;98415.81;;;3.91;50.21
63339;BME280;47485;51.378;-1.342;2023-03-23T08:14:15;98409.21;;;4.37;48.50
63339;BME280;47485;51.378;-1.342;2023-03-23T08:16:42;98411.39;;;3.73;48.27
63339;BME280;47485;51.378;-1.342;2023-03-23T08:19:09;98411.99;;;2.08;51.20
63339;BME280;47485;51.378;-1.342;2023-03-23T08:21:36;98411.85;;;2.46;49.61
63339;BME280;47485;51.378;-1.342;2023-03-23T08:24:02;98407.73;;;3.16;49.17
63339;BME280;47485;51.378;-1.342;2023-03-23T08:26:29;98411.58;;;3.26;49.72
63339;BME280;47485;51.378;-1.342;2023-03-23T08:28:56;98405.38;;;3.06;49.57
63339;BME280;47485;51.378;-1.342;2023-03-23T08:31:23;98403.88;;;3.98;51.25
63339;BME280;47485;51.378;-1.342;2023-03-23T08:33:49;98416.83;;;2.65;50.14
63339;BME280;47485;51.378;-1.342;2023-03-23T08:36:16;98411.50;;;4.21;48.69
63339;BME280;47485;51.378;-1.342;2023-03-23T08:38:43;98418.69;;;5.08;46.56
63339;BME280;47485;51.378;-1.342;2023-03-23T08:41:09;98418.74;;;4.53;47.36
63339;BME280;47485;51.378;-1.342;2023-03-23T08:43:36;98419.55;;;4.89;48.46
63339;BME280;47485;51.378;-1.342;2023-03-23T08:46:02;98425.73;;;4.51;49.05
63339;BME280;47485;51.378;-1.342;2023-03-23T08:48:29;98425.66;;;5.16;46.60
63339;BME280;47485;51.378;-1.342;2023-03-23T08:50:56;98424.28;;;4.13;47.15
63339;BME280;47485;51.378;-1.342;2023-03-23T08:53:23;98426.12;;;2.80;47.96
63339;BME280;47485;51.378;-1.342;2023-03-23T08:55:50;98425.49;;;4.22;48.57
63339;BME280;47485;51.378;-1.342;2023-03-23T08:58:17;98427.77;;;3.24;49.17
63339;BME280;47485;51.378;-1.342;2023-03-23T09:00:44;98424.69;;;4.23;48.90
63339;BME280;47485;51.378;-1.342;2023-03-23T09:03:11;98423.17;;;4.87;47.92
63339;BME280;47485;51.378;-1.342;2023-03-23T09:05:38;98424.60;;;4.59;46.97
63339;BME280;47485;51.378;-1.342;2023-03-23T09:08:04;98422.54;;;4.86;45.17
63339;BME280;47485;51.378;-1.342;2023-03-23T09:10:31;98419.63;;;4.48;45.77
63339;BME280;47485;51.378;-1.342;2023-03-23T09:12:58;98423.45;;;4.40;46.76
63339;BME280;47485;51.378;-1.342;2023-03-23T09:15:24;98423.40;;;3.68;48.80
63339;BME280;47485;51.378;-1.342;2023-03-23T09:17:53;98423.47;;;5.56;46.07
63339;BME280;47485;51.378;-1.342;2023-03-23T09:20:22;98420.80;;;5.71;45.56
63339;BME280;47485;51.378;-1.342;2023-03-23T09:22:51;98425.04;;;4.47;45.95
63339;BME280;47485;51.378;-1.342;2023-03-23T09:25:21;98427.22;;;3.98;47.54
63339;BME280;47485;51.378;-1.342;2023-03-23T09:27:49;98427.13;;;5.10;47.68
63339;BME280;47485;51.378;-1.342;2023-03-23T09:30:16;98431.20;;;3.80;49.94
63339;BME280;47485;51.378;-1.342;2023-03-23T09:32:43;98426.24;;;4.73;48.31
63339;BME280;47485;51.378;-1.342;2023-03-23T09:35:10;98419.92;;;4.10;49.16
63339;BME280;47485;51.378;-1.342;2023-03-23T09:37:38;98422.36;;;4.53;47.00
63339;BME280;47485;51.378;-1.342;2023-03-23T09:40:09;98421.94;;;4.71;47.82
63339;BME280;47485;51.378;-1.342;2023-03-23T09:42:45;98429.34;;;4.13;46.66
63339;BME280;47485;51.378;-1.342;2023-03-23T09:45:22;98434.63;;;6.31;45.32
63339;BME280;47485;51.378;-1.342;2023-03-23T09:48:05;98417.42;;;6.32;43.77
63339;BME280;47485;51.378;-1.342;2023-03-23T09:50:37;98419.97;;;6.85;43.59
63339;BME280;47485;51.378;-1.342;2023-03-23T09:53:12;98411.79;;;6.73;43.46
63339;BME280;47485;51.378;-1.342;2023-03-23T09:55:40;98406.69;;;7.21;42.38
63339;BME280;47485;51.378;-1.342;2023-03-23T09:58:11;98407.54;;;5.75;43.09
63339;BME280;47485;51.378;-1.342;2023-03-23T10:00:44;98401.91;;;6.69;43.00
63339;BME280;47485;51.378;-1.342;2023-03-23T10:03:14;98404.89;;;6.10;43.28
63339;BME280;47485;51.378;-1.342;2023-03-23T10:05:45;98401.51;;;6.07;42.78
63339;BME280;47485;51.378;-1.342;2023-03-23T10:08:14;98418.47;;;6.58;42.27
63339;BME280;47485;51.378;-1.342;2023-03-23T10:10:48;98426.94;;;5.28;48.33
63339;BME280;47485;51.378;-1.342;2023-03-23T10:13:31;98424.45;;;5.14;49.58
63339;BME280;47485;51.378;-1.342;2023-03-23T10:16:03;98431.68;;;4.05;51.25
63339;BME280;47485;51.378;-1.342;2023-03-23T10:18:37;98432.38;;;4.65;49.11
63339;BME280;47485;51.378;-1.342;2023-03-23T10:21:05;98428.01;;;4.32;50.30
63339;BME280;47485;51.378;-1.342;2023-03-23T10:23:43;98438.34;;;4.53;50.76
63339;BME280;47485;51.378;-1.342;2023-03-23T10:26:23;98433.78;;;3.55;51.58
63339;BME280;47485;51.378;-1.342;2023-03-23T10:28:58;98441.83;;;4.49;51.44
63339;BME280;47485;51.378;-1.342;2023-03-23T10:31:30;98436.07;;;5.38;51.64
63339;BME280;47485;51.378;-1.342;2023-03-23T10:34:03;98443.24;;;4.17;53.14
63339;BME280;47485;51.378;-1.342;2023-03-23T10:36:35;98431.27;;;3.64;50.89
63339;BME280;47485;51.378;-1.342;2023-03-23T10:39:12;98431.81;;;5.00;48.10
63339;BME280;47485;51.378;-1.342;2023-03-23T10:41:39;98437.56;;;5.33;48.35
63339;BME280;47485;51.378;-1.342;2023-03-23T10:44:10;98427.53;;;4.36;47.80
63339;BME280;47485;51.378;-1.342;2023-03-23T10:46:44;98421.13;;;5.97;48.85
63339;BME280;47485;51.378;-1.342;2023-03-23T10:49:13;98417.93;;;4.39;48.98
63339;BME280;47485;51.378;-1.342;2023-03-23T10:51:43;98428.02;;;4.18;50.73
63339;BME280;47485;51.378;-1.342;2023-03-23T10:54:11;98433.25;;;4.91;52.91
63339;BME280;47485;51.378;-1.342;2023-03-23T10:56:39;98440.17;;;5.02;51.33
63339;BME280;47485;51.378;-1.342;2023-03-23T10:59:26;98436.98;;;4.57;51.79
63339;BME280;47485;51.378;-1.342;2023-03-23T11:01:55;98449.07;;;5.55;50.72
63339;BME280;47485;51.378;-1.342;2023-03-23T11:04:23;98443.88;;;4.52;50.30
63339;BME280;47485;51.378;-1.342;2023-03-23T11:06:53;98441.06;;;4.42;50.06
63339;BME280;47485;51.378;-1.342;2023-03-23T11:09:32;98439.95;;;4.01;52.26
63339;BME280;47485;51.378;-1.342;2023-03-23T11:12:16;98449.48;;;4.66;49.81
63339;BME280;47485;51.378;-1.342;2023-03-23T11:14:44;98455.21;;;3.31;50.56
63339;BME280;47485;51.378;-1.342;2023-03-23T11:17:21;98461.23;;;4.24;51.61
63339;BME280;47485;51.378;-1.342;2023-03-23T11:19:48;98444.48;;;3.77;52.45
63339;BME280;47485;51.378;-1.342;2023-03-23T11:22:20;98445.54;;;4.26;52.91
63339;BME280;47485;51.378;-1.342;2023-03-23T11:24:52;98441.99;;;3.42;51.13
63339;BME280;47485;51.378;-1.342;2023-03-23T11:27:21;98446.42;;;5.68;50.97
63339;BME280;47485;51.378;-1.342;2023-03-23T11:29:51;98450.64;;;5.18;51.78
63339;BME280;47485;51.378;-1.342;2023-03-23T11:32:23;98443.33;;;6.33;49.07
63339;BME280;47485;51.378;-1.342;2023-03-23T11:34:55;98449.09;;;4.42;52.01
63339;BME280;47485;51.378;-1.342;2023-03-23T11:37:29;98448.73;;;4.46;49.90
63339;BME280;47485;51.378;-1.342;2023-03-23T11:39:58;98424.98;;;5.52;51.89
63339;BME280;47485;51.378;-1.342;2023-03-23T11:42:34;98426.41;;;5.08;50.19
63339;BME280;47485;51.378;-1.342;2023-03-23T11:45:15;98425.53;;;3.36;51.95
63339;BME280;47485;51.378;-1.342;2023-03-23T11:47:51;98425.83;;;4.67;51.22
63339;BME280;47485;51.378;-1.342;2023-03-23T11:50:24;98410.60;;;3.14;49.75
63339;BME280;47485;51.378;-1.342;2023-03-23T11:52:55;98409.91;;;3.89;50.38
63339;BME280;47485;51.378;-1.342;2023-03-23T11:55:28;98412.79;;;5.36;48.67
63339;BME280;47485;51.378;-1.342;2023-03-23T11:58:00;98411.21;;;4.58;47.92
63339;BME280;47485;51.378;-1.342;2023-03-23T12:00:28;98406.20;;;4.00;47.54
63339;BME280;47485;51.378;-1.342;2023-03-23T12:02:59;98409.96;;;4.59;48.40
63339;BME280;47485;51.378;-1.342;2023-03-23T12:05:36;98400.08;;;3.96;48.13
63339;BME280;47485;51.378;-1.342;2023-03-23T12:08:37;98393.42;;;4.67;47.80
63339;BME280;47485;51.378;-1.342;2023-03-23T12:11:11;98395.85;;;4.44;46.22
63339;BME280;47485;51.378;-1.342;2023-03-23T12:13:55;98398.12;;;4.64;44.88
63339;BME280;47485;51.378;-1.342;2023-03-23T12:16:34;98411.64;;;5.75;47.33
63339;BME280;47485;51.378;-1.342;2023-03-23T12:19:22;98397.05;;;3.82;46.74
63339;BME280;47485;51.378;-1.342;2023-03-23T12:21:57;98400.63;;;5.31;46.05
63339;BME280;47485;51.378;-1.342;2023-03-23T12:24:37;98412.31;;;4.14;46.96
63339;BME280;47485;51.378;-1.342;2023-03-23T12:27:10;98407.73;;;4.98;46.08
63339;BME280;47485;51.378;-1.342;2023-03-23T12:29:49;98406.01;;;3.95;45.18
63339;BME280;47485;51.378;-1.342;2023-03-23T12:32:29;98406.96;;;5.58;44.98
63339;BME280;47485;51.378;-1.342;2023-03-23T12:35:07;98393.74;;;5.25;43.58
63339;BME280;47485;51.378;-1.342;2023-03-23T12:37:46;98389.27;;;5.65;42.71
63339;BME280;47485;51.378;-1.342;2023-03-23T12:41:22;98385.07;;;5.69;41.03
63339;BME280;47485;51.378;-1.342;2023-03-23T12:43:55;98382.31;;;6.76;40.10
63339;BME280;47485;51.378;-1.342;2023-03-23T12:46:51;98387.91;;;5.45;40.92
63339;BME280;47485;51.378;-1.342;2023-03-23T12:49:24;98370.82;;;5.46;41.40
63339;BME280;47485;51.378;-1.342;2023-03-23T12:51:58;98375.45;;;5.90;41.33
63339;BME280;47485;51.378;-1.342;2023-03-23T12:54:29;98383.77;;;5.65;41.89
63339;BME280;47485;51.378;-1.342;2023-03-23T12:57:01;98378.00;;;6.37;42.55
63339;BME280;47485;51.378;-1.342;2023-03-23T12:59:35;98376.55;;;6.09;41.26
63339;BME280;47485;51.378;-1.342;2023-03-23T13:02:10;98375.23;;;7.82;42.10
63339;BME280;47485;51.378;-1.342;2023-03-23T13:04:43;98374.35;;;5.98;41.02
63339;BME280;47485;51.378;-1.342;2023-03-23T13:07:14;98381.31;;;6.77;42.26
63339;BME280;47485;51.378;-1.342;2023-03-23T13:09:50;98379.17;;;6.10;41.95
63339;BME280;47485;51.378;-1.342;2023-03-23T13:12:20;98391.68;;;6.26;41.93
63339;BME280;47485;51.378;-1.342;2023-03-23T13:14:55;98373.23;;;4.19;41.73
63339;BME280;47485;51.378;-1.342;2023-03-23T13:17:32;98363.13;;;4.36;44.99